createdAt,value
2018-05-21T00:02:30.943Z,14.66
2018-05-21T00:05:03.304Z,14.76
2018-05-21T00:07:35.666Z,14.84
2018-05-21T00:10:07.435Z,14.83
2018-05-21T00:12:40.440Z,14.96
2018-05-21T00:15:32.198Z,14.97
2018-05-21T00:18:05.180Z,14.95
2018-05-21T00:20:36.806Z,14.93
2018-05-21T00:23:10.887Z,14.93
2018-05-21T00:25:42.464Z,14.94
2018-05-21T00:28:14.635Z,14.92
2018-05-21T00:30:57.074Z,14.90
2018-05-21T00:33:28.513Z,14.78
2018-05-21T00:35:59.732Z,14.78
2018-05-21T00:38:36.963Z,14.80
2018-05-21T00:41:08.284Z,14.68
2018-05-21T00:43:40.986Z,14.74
2018-05-21T00:49:21.443Z,14.70
2018-05-21T00:51:53.379Z,14.66
2018-05-21T00:54:24.958Z,14.68
2018-05-21T00:56:58.276Z,14.69
2018-05-21T01:02:32.395Z,14.63
2018-05-21T01:05:04.249Z,14.67
2018-05-21T01:07:40.228Z,14.63
2018-05-21T01:10:11.651Z,14.47
2018-05-21T01:12:42.998Z,14.44
2018-05-21T01:15:14.451Z,14.36
2018-05-21T01:17:45.924Z,14.27
2018-05-21T01:20:26.850Z,14.29
2018-05-21T01:22:58.462Z,14.29
2018-05-21T01:25:32.496Z,14.21
2018-05-21T01:28:10.483Z,14.13
2018-05-21T01:30:41.916Z,14.02
2018-05-21T01:33:13.641Z,13.81
2018-05-21T01:35:52.579Z,13.74
2018-05-21T01:38:24.028Z,13.42
2018-05-21T01:40:55.472Z,13.70
2018-05-21T01:43:27.263Z,13.72
2018-05-21T01:45:58.675Z,13.56
2018-05-21T01:48:30.863Z,13.59
2018-05-21T01:51:02.089Z,13.45
2018-05-21T01:53:33.951Z,13.18
2018-05-21T01:56:18.338Z,13.17
2018-05-21T01:58:50.431Z,13.20
2018-05-21T02:01:21.734Z,13.34
2018-05-21T02:03:53.909Z,13.45
2018-05-21T02:06:25.336Z,13.48
2018-05-21T02:08:56.719Z,13.42
2018-05-21T02:11:28.006Z,13.25
2018-05-21T02:13:59.621Z,12.95
2018-05-21T02:19:39.603Z,12.88
2018-05-21T02:22:11.391Z,12.97
2018-05-21T02:24:42.809Z,13.15
2018-05-21T02:27:27.255Z,13.37
2018-05-21T02:29:59.976Z,13.29
2018-05-21T02:32:31.480Z,13.15
2018-05-21T02:35:03.992Z,13.16
2018-05-21T02:37:35.404Z,12.71
2018-05-21T02:40:06.859Z,12.72
2018-05-21T02:42:44.458Z,12.63
2018-05-21T02:45:15.911Z,12.86
2018-05-21T02:47:48.148Z,12.81
2018-05-21T02:50:24.099Z,12.62
2018-05-21T02:52:59.651Z,12.21
2018-05-21T02:55:32.555Z,12.48
2018-05-21T02:58:04.895Z,12.06
2018-05-21T03:00:36.581Z,12.47
2018-05-21T03:03:09.910Z,12.74
2018-05-21T03:05:41.423Z,12.48
2018-05-21T03:08:12.944Z,12.65
2018-05-21T03:13:41.264Z,12.49
2018-05-21T03:16:12.547Z,12.57
2018-05-21T03:18:50.103Z,12.53
2018-05-21T03:21:21.923Z,12.69
2018-05-21T03:23:54.449Z,11.76
2018-05-21T03:26:31.618Z,12.18
2018-05-21T03:29:02.984Z,11.96
2018-05-21T03:31:34.351Z,12.07
2018-05-21T03:34:25.667Z,12.30
2018-05-21T03:36:57.364Z,12.43
2018-05-21T03:39:28.747Z,11.91
2018-05-21T03:42:00.479Z,12.10
2018-05-21T03:44:32.478Z,11.98
2018-05-21T03:47:04.212Z,12.14
2018-05-21T03:49:39.710Z,12.07
2018-05-21T03:52:11.077Z,12.02
2018-05-21T03:54:42.435Z,12.23
2018-05-21T03:57:19.990Z,12.22
2018-05-21T04:00:01.985Z,12.60
2018-05-21T04:03:46.162Z,12.71
2018-05-21T04:06:17.568Z,12.00
2018-05-21T04:08:49.227Z,12.37
2018-05-21T04:11:20.677Z,12.60
2018-05-21T04:13:52.038Z,12.06
2018-05-21T04:16:25.204Z,12.20
2018-05-21T04:18:57.682Z,12.60
2018-05-21T04:21:29.676Z,12.95
2018-05-21T04:24:01.616Z,13.24
2018-05-21T04:26:32.970Z,13.53
2018-05-21T04:29:04.632Z,13.67
2018-05-21T04:31:35.955Z,13.81
2018-05-21T04:34:07.623Z,13.87
2018-05-21T04:36:39.179Z,14.01
2018-05-21T04:39:10.432Z,14.00
2018-05-21T04:41:43.101Z,14.12
2018-05-21T04:44:14.676Z,14.26
2018-05-21T04:46:46.104Z,14.35
2018-05-21T04:49:17.883Z,14.44
2018-05-21T04:51:49.234Z,14.40
2018-05-21T04:54:33.689Z,14.46
2018-05-21T04:57:05.471Z,14.53
2018-05-21T04:59:36.691Z,14.56
2018-05-21T05:02:08.042Z,14.72
2018-05-21T05:04:39.107Z,14.61
2018-05-21T05:07:10.130Z,14.71
2018-05-21T05:09:41.722Z,14.79
2018-05-21T05:12:13.120Z,14.81
2018-05-21T05:14:44.218Z,14.73
2018-05-21T05:17:15.520Z,15.04
2018-05-21T05:19:46.854Z,15.04
2018-05-21T05:22:25.683Z,15.25
2018-05-21T05:24:57.287Z,15.03
2018-05-21T05:27:28.667Z,15.10
2018-05-21T05:30:00.544Z,15.37
2018-05-21T05:32:31.682Z,15.26
2018-05-21T05:35:03.336Z,15.08
2018-05-21T05:37:34.779Z,15.08
2018-05-21T05:40:06.236Z,15.44
2018-05-21T05:42:43.723Z,15.39
2018-05-21T05:45:15.179Z,15.20
2018-05-21T05:47:46.532Z,15.35
2018-05-21T05:50:18.262Z,15.46
2018-05-21T05:52:49.739Z,15.72
2018-05-21T05:55:21.191Z,15.48
2018-05-21T05:57:55.017Z,15.56
2018-05-21T06:00:27.754Z,15.66
2018-05-21T06:02:59.499Z,15.64
2018-05-21T06:05:31.859Z,15.60
2018-05-21T06:08:04.272Z,15.85
2018-05-21T06:10:35.751Z,15.89
2018-05-21T06:13:25.019Z,15.98
2018-05-21T06:15:56.734Z,16.04
2018-05-21T06:18:28.202Z,16.12
2018-05-21T06:20:59.664Z,15.99
2018-05-21T06:23:31.115Z,16.27
2018-05-21T06:26:03.152Z,16.20
2018-05-21T06:28:48.266Z,16.10
2018-05-21T06:31:19.713Z,16.25
2018-05-21T06:33:51.361Z,16.30
2018-05-21T06:36:22.695Z,16.41
2018-05-21T06:38:54.715Z,16.44
2018-05-21T06:41:26.139Z,16.35
2018-05-21T06:43:57.452Z,16.37
2018-05-21T06:46:29.243Z,16.58
2018-05-21T06:49:09.184Z,16.56
2018-05-21T06:51:41.145Z,16.67
2018-05-21T06:54:12.679Z,16.36
2018-05-21T06:56:44.166Z,16.89
2018-05-21T06:59:15.680Z,16.90
2018-05-21T07:01:47.476Z,16.95
2018-05-21T07:04:19.087Z,17.09
2018-05-21T07:07:12.483Z,17.01
2018-05-21T07:09:44.224Z,16.89
2018-05-21T07:12:15.794Z,16.91
2018-05-21T07:14:49.775Z,17.11
2018-05-21T07:17:21.735Z,17.18
2018-05-21T07:19:53.412Z,17.09
2018-05-21T07:22:32.652Z,17.27
2018-05-21T07:25:04.383Z,17.32
2018-05-21T07:27:36.223Z,17.19
2018-05-21T07:30:10.255Z,17.44
2018-05-21T07:32:41.956Z,17.33
2018-05-21T07:35:13.894Z,17.52
2018-05-21T07:37:47.608Z,18.01
2018-05-21T07:40:19.131Z,18.02
2018-05-21T07:42:50.803Z,18.01
2018-05-21T07:45:22.747Z,18.02
2018-05-21T07:47:54.775Z,18.09
2018-05-21T07:50:30.161Z,18.15
2018-05-21T07:53:02.627Z,18.12
2018-05-21T07:55:34.496Z,18.18
2018-05-21T07:58:08.926Z,18.19
2018-05-21T08:00:40.472Z,18.23
2018-05-21T08:03:13.243Z,18.42
2018-05-21T08:05:44.498Z,18.35
2018-05-21T08:08:16.175Z,18.54
2018-05-21T08:10:48.846Z,18.66
2018-05-21T08:13:20.855Z,18.62
2018-05-21T08:15:52.250Z,18.71
2018-05-21T08:18:27.283Z,18.54
2018-05-21T08:20:58.836Z,18.83
2018-05-21T08:23:30.406Z,18.72
2018-05-21T08:26:01.971Z,18.76
2018-05-21T08:28:33.465Z,19.15
2018-05-21T08:31:08.557Z,19.03
2018-05-21T08:33:39.999Z,19.21
2018-05-21T08:36:11.431Z,19.09
2018-05-21T08:38:56.832Z,19.11
2018-05-21T08:41:28.151Z,19.34
2018-05-21T08:43:59.743Z,19.59
2018-05-21T08:46:40.510Z,19.48
2018-05-21T08:49:12.383Z,19.66
2018-05-21T08:51:43.679Z,19.48
2018-05-21T08:54:15.955Z,19.21
2018-05-21T08:56:47.411Z,19.54
2018-05-21T08:59:18.775Z,19.45
2018-05-21T09:01:50.315Z,19.76
2018-05-21T09:04:21.887Z,19.77
2018-05-21T09:09:52.394Z,19.83
2018-05-21T09:12:23.926Z,19.95
2018-05-21T09:14:55.648Z,20.00
2018-05-21T09:17:27.011Z,20.29
2018-05-21T09:19:58.444Z,20.32
2018-05-21T09:22:29.841Z,20.02
2018-05-21T09:25:01.393Z,19.75
2018-05-21T09:27:37.887Z,20.25
2018-05-21T09:30:10.979Z,20.24
2018-05-21T09:32:42.422Z,20.16
2018-05-21T09:35:21.375Z,20.53
2018-05-21T09:37:52.795Z,20.72
2018-05-21T09:40:25.542Z,20.62
2018-05-21T09:42:56.942Z,20.85
2018-05-21T09:45:28.404Z,20.69
2018-05-21T09:47:59.855Z,20.72
2018-05-21T09:50:36.523Z,20.65
2018-05-21T09:53:08.976Z,21.05
2018-05-21T09:55:40.351Z,21.09
2018-05-21T09:58:13.776Z,20.76
2018-05-21T10:00:46.105Z,20.75
2018-05-21T10:03:17.435Z,20.78
2018-05-21T10:05:48.536Z,20.80
2018-05-21T10:08:19.779Z,20.76
2018-05-21T10:10:50.842Z,20.92
2018-05-21T10:13:22.444Z,21.14
2018-05-21T10:15:53.688Z,21.01
2018-05-21T10:18:24.734Z,20.88
2018-05-21T10:20:56.083Z,21.11
2018-05-21T10:23:27.095Z,21.00
2018-05-21T10:25:58.815Z,21.02
2018-05-21T10:28:35.752Z,21.03
2018-05-21T10:31:06.863Z,21.31
2018-05-21T10:33:38.131Z,21.53
2018-05-21T10:36:09.490Z,21.57
2018-05-21T10:38:40.847Z,21.55
2018-05-21T10:41:12.879Z,21.35
2018-05-21T10:43:44.514Z,21.58
2018-05-21T10:46:15.950Z,21.74
2018-05-21T10:48:47.662Z,21.60
2018-05-21T10:51:19.093Z,21.81
2018-05-21T10:53:50.562Z,22.01
2018-05-21T10:56:22.251Z,21.87
2018-05-21T10:58:53.599Z,21.78
2018-05-21T11:04:32.471Z,21.63
2018-05-21T11:07:03.767Z,21.74
2018-05-21T11:09:35.136Z,21.74
2018-05-21T11:12:06.579Z,21.66
2018-05-21T11:14:37.915Z,21.98
2018-05-21T11:17:09.252Z,21.40
2018-05-21T11:19:40.332Z,21.44
2018-05-21T11:22:11.668Z,21.69
2018-05-21T11:24:47.800Z,21.68
2018-05-21T11:27:19.139Z,21.80
2018-05-21T11:29:50.634Z,21.31
2018-05-21T11:32:21.981Z,21.79
2018-05-21T11:34:53.176Z,21.94
2018-05-21T11:37:36.044Z,21.99
2018-05-21T11:40:07.392Z,21.84
2018-05-21T11:42:38.434Z,21.95
2018-05-21T11:48:06.559Z,21.77
2018-05-21T11:50:38.408Z,22.04
2018-05-21T11:53:11.098Z,22.35
2018-05-21T11:55:42.932Z,22.26
2018-05-21T11:58:14.544Z,21.60
2018-05-21T12:00:57.296Z,21.95
2018-05-21T12:03:29.251Z,22.26
2018-05-21T12:06:00.604Z,22.38
2018-05-21T12:08:32.531Z,22.48
2018-05-21T12:11:03.899Z,22.38
2018-05-21T12:13:35.297Z,22.22
2018-05-21T12:19:09.135Z,22.17
2018-05-21T12:21:40.528Z,22.55
2018-05-21T12:24:11.978Z,22.52
2018-05-21T12:26:43.331Z,22.34
2018-05-21T12:29:18.674Z,22.64
2018-05-21T12:31:50.246Z,22.53
2018-05-21T12:34:21.595Z,22.47
2018-05-21T12:36:52.918Z,22.40
2018-05-21T12:39:24.429Z,22.63
2018-05-21T12:42:19.492Z,22.92
2018-05-21T12:44:51.420Z,22.90
2018-05-21T12:47:22.779Z,22.58
2018-05-21T12:49:54.438Z,22.74
2018-05-21T12:52:26.144Z,22.86
2018-05-21T12:54:57.836Z,22.93
2018-05-21T12:57:30.804Z,23.10
2018-05-21T13:00:02.463Z,22.46
2018-05-21T13:02:34.071Z,22.53
2018-05-21T13:05:17.377Z,22.48
2018-05-21T13:07:53.465Z,22.73
2018-05-21T13:10:30.747Z,22.92
2018-05-21T13:13:03.820Z,23.10
2018-05-21T13:15:40.476Z,22.80
2018-05-21T13:18:13.631Z,22.84
2018-05-21T13:20:59.284Z,22.93
2018-05-21T13:23:30.703Z,23.21
2018-05-21T13:26:02.662Z,23.27
2018-05-21T13:28:34.541Z,23.36
2018-05-21T13:31:06.915Z,23.38
2018-05-21T13:33:38.382Z,23.11
2018-05-21T13:36:14.912Z,22.99
2018-05-21T13:38:46.267Z,23.24
2018-05-21T13:41:17.655Z,23.02
2018-05-21T13:43:49.375Z,23.30
2018-05-21T13:46:20.883Z,23.26
2018-05-21T13:48:52.271Z,23.00
2018-05-21T13:51:23.952Z,22.86
2018-05-21T13:53:55.317Z,23.22
2018-05-21T13:56:28.092Z,23.31
2018-05-21T13:58:59.479Z,23.27
2018-05-21T14:01:30.785Z,23.36
2018-05-21T14:04:02.227Z,23.05
2018-05-21T14:06:33.727Z,22.55
2018-05-21T14:09:06.575Z,22.95
2018-05-21T14:11:38.059Z,23.13
2018-05-21T14:14:09.343Z,23.25
2018-05-21T14:16:52.719Z,23.08
2018-05-21T14:19:24.349Z,23.19
2018-05-21T14:21:56.111Z,23.23
2018-05-21T14:24:27.454Z,23.14
2018-05-21T14:26:59.082Z,22.92
2018-05-21T14:29:30.523Z,23.38
2018-05-21T14:32:04.715Z,24.04
2018-05-21T14:34:36.934Z,24.37
2018-05-21T14:37:21.361Z,24.27
2018-05-21T14:39:52.899Z,24.14
2018-05-21T14:42:34.476Z,23.94
2018-05-21T14:45:13.507Z,23.33
2018-05-21T14:47:51.654Z,23.61
2018-05-21T14:50:23.943Z,23.45
2018-05-21T14:52:55.691Z,23.28
2018-05-21T14:55:27.142Z,23.21
2018-05-21T14:57:58.399Z,23.13
2018-05-21T15:00:30.307Z,23.10
2018-05-21T15:03:02.487Z,23.09
2018-05-21T15:05:34.182Z,23.11
2018-05-21T15:08:06.262Z,23.41
2018-05-21T15:10:38.846Z,23.50
2018-05-21T15:13:12.200Z,23.53
2018-05-21T15:15:43.275Z,23.05
2018-05-21T15:18:14.718Z,23.03
2018-05-21T15:20:45.719Z,23.10
2018-05-21T15:23:16.768Z,23.19
2018-05-21T15:25:48.127Z,22.91
2018-05-21T15:28:20.741Z,22.91
2018-05-21T15:30:52.609Z,22.78
2018-05-21T15:33:23.963Z,22.65
2018-05-21T15:35:55.281Z,22.86
2018-05-21T15:38:38.006Z,23.03
2018-05-21T15:41:09.343Z,23.04
2018-05-21T15:43:40.680Z,23.00
2018-05-21T15:46:19.323Z,22.50
2018-05-21T15:48:51.640Z,22.66
2018-05-21T15:51:25.783Z,22.81
2018-05-21T15:53:58.085Z,22.84
2018-05-21T15:56:29.508Z,23.00
2018-05-21T15:59:00.879Z,22.73
2018-05-21T16:01:32.211Z,23.01
2018-05-21T16:04:04.907Z,23.00
2018-05-21T16:06:37.567Z,22.94
2018-05-21T16:09:09.264Z,22.78
2018-05-21T16:11:40.275Z,22.85
2018-05-21T16:14:13.069Z,22.88
2018-05-21T16:16:44.595Z,22.63
2018-05-21T16:19:16.186Z,22.54
2018-05-21T16:21:48.827Z,22.78
2018-05-21T16:24:20.308Z,22.74
2018-05-21T16:26:51.378Z,22.60
2018-05-21T16:29:23.145Z,22.92
2018-05-21T16:31:54.251Z,22.90
2018-05-21T16:34:25.298Z,22.78
2018-05-21T16:36:56.637Z,22.52
2018-05-21T16:39:27.916Z,22.48
2018-05-21T16:41:59.324Z,22.65
2018-05-21T16:44:30.780Z,22.63
2018-05-21T16:47:01.851Z,22.64
2018-05-21T16:49:42.559Z,22.49
2018-05-21T16:52:13.580Z,22.42
2018-05-21T16:54:45.374Z,22.47
2018-05-21T16:57:19.027Z,22.63
2018-05-21T16:59:52.273Z,22.55
2018-05-21T17:02:24.444Z,22.60
2018-05-21T17:04:56.275Z,22.62
2018-05-21T17:07:27.651Z,22.38
2018-05-21T17:09:59.025Z,22.35
2018-05-21T17:12:32.428Z,22.41
2018-05-21T17:15:04.144Z,22.61
2018-05-21T17:17:35.164Z,22.50
2018-05-21T17:20:06.139Z,22.18
2018-05-21T17:22:36.941Z,22.13
2018-05-21T17:25:07.765Z,22.07
2018-05-21T17:27:38.908Z,21.81
2018-05-21T17:30:11.769Z,21.99
2018-05-21T17:32:42.625Z,21.90
2018-05-21T17:35:13.456Z,21.75
2018-05-21T17:37:44.264Z,21.70
2018-05-21T17:40:15.421Z,21.86
2018-05-21T17:42:46.225Z,21.79
2018-05-21T17:45:17.072Z,21.52
2018-05-21T17:47:49.565Z,21.54
2018-05-21T17:50:22.127Z,21.65
2018-05-21T17:52:54.496Z,21.68
2018-05-21T17:55:25.991Z,21.70
2018-05-21T17:57:57.192Z,21.64
2018-05-21T18:00:28.713Z,21.55
2018-05-21T18:03:01.533Z,21.74
2018-05-21T18:05:33.336Z,21.70
2018-05-21T18:08:05.784Z,21.81
2018-05-21T18:10:36.929Z,21.69
2018-05-21T18:13:09.740Z,21.19
2018-05-21T18:15:41.115Z,21.44
2018-05-21T18:18:22.469Z,21.33
2018-05-21T18:20:53.285Z,21.34
2018-05-21T18:23:24.319Z,21.21
2018-05-21T18:25:55.376Z,21.17
2018-05-21T18:28:26.460Z,21.10
2018-05-21T18:30:57.812Z,21.01
2018-05-21T18:33:28.757Z,20.98
2018-05-21T18:35:59.691Z,20.83
2018-05-21T18:38:30.836Z,20.71
2018-05-21T18:41:01.677Z,20.52
2018-05-21T18:43:32.472Z,20.61
2018-05-21T18:46:03.610Z,20.51
2018-05-21T18:48:34.925Z,20.49
2018-05-21T18:51:06.225Z,20.57
2018-05-21T18:53:49.315Z,20.50
2018-05-21T18:56:20.477Z,20.49
2018-05-21T18:58:51.577Z,20.43
2018-05-21T19:01:23.146Z,20.11
2018-05-21T19:03:54.180Z,20.18
2018-05-21T19:06:25.737Z,20.21
2018-05-21T19:08:56.817Z,20.17
2018-05-21T19:11:27.999Z,20.02
2018-05-21T19:14:19.120Z,19.97
2018-05-21T19:16:50.482Z,19.88
2018-05-21T19:19:21.571Z,19.94
2018-05-21T19:21:52.785Z,19.89
2018-05-21T19:24:24.164Z,19.65
2018-05-21T19:26:55.276Z,19.80
2018-05-21T19:29:39.602Z,19.73
2018-05-21T19:32:11.299Z,19.61
2018-05-21T19:34:42.515Z,19.55
2018-05-21T19:37:13.351Z,19.61
2018-05-21T19:39:44.140Z,19.61
2018-05-21T19:42:15.264Z,19.61
2018-05-21T19:44:46.083Z,19.51
2018-05-21T19:47:17.257Z,19.52
2018-05-21T19:52:56.327Z,19.49
2018-05-21T19:55:29.332Z,19.34
2018-05-21T19:58:01.181Z,19.41
2018-05-21T20:00:33.064Z,19.27
2018-05-21T20:03:06.143Z,19.19
2018-05-21T20:05:39.224Z,19.16
2018-05-21T20:08:12.286Z,19.14
2018-05-21T20:10:43.796Z,19.04
2018-05-21T20:13:17.110Z,19.10
2018-05-21T20:15:50.495Z,19.09
2018-05-21T20:18:40.386Z,19.12
2018-05-21T20:22:14.537Z,19.14
2018-05-21T20:31:28.348Z,18.50
2018-05-21T20:34:01.971Z,18.40
2018-05-21T20:36:39.169Z,18.36
2018-05-21T20:39:10.460Z,18.75
2018-05-21T20:41:43.116Z,18.92
2018-05-21T20:44:15.210Z,18.98
2018-05-21T20:46:46.923Z,18.88
2018-05-21T20:49:19.029Z,18.94
2018-05-21T20:51:50.280Z,18.95
2018-05-21T20:54:21.732Z,18.90
2018-05-21T20:56:53.252Z,18.63
2018-05-21T20:59:24.888Z,18.62
2018-05-21T21:01:56.218Z,18.64
2018-05-21T21:04:27.783Z,18.65
2018-05-21T21:06:58.976Z,18.60
2018-05-21T21:09:30.537Z,18.61
2018-05-21T21:12:03.006Z,18.52
2018-05-21T21:14:34.565Z,17.84
2018-05-21T21:17:05.934Z,17.90
2018-05-21T21:19:37.556Z,18.25
2018-05-21T21:22:08.626Z,18.26
2018-05-21T21:24:40.147Z,18.20
2018-05-21T21:27:11.421Z,18.05
2018-05-21T21:29:43.097Z,18.09
2018-05-21T21:32:14.404Z,17.86
2018-05-21T21:34:45.926Z,17.75
2018-05-21T21:37:17.133Z,17.59
2018-05-21T21:39:48.349Z,17.25
2018-05-21T21:42:19.517Z,17.63
2018-05-21T21:44:50.815Z,17.60
2018-05-21T21:47:22.106Z,17.53
2018-05-21T21:49:53.410Z,17.41
2018-05-21T21:52:25.197Z,17.47
2018-05-21T21:54:57.603Z,17.28
2018-05-21T21:57:28.831Z,17.36
2018-05-21T22:00:00.270Z,17.28
2018-05-21T22:02:31.761Z,17.27
2018-05-21T22:05:03.535Z,17.21
2018-05-21T22:07:34.761Z,17.11
2018-05-21T22:10:06.213Z,16.95
2018-05-21T22:12:37.621Z,16.97
2018-05-21T22:15:09.776Z,16.89
2018-05-21T22:17:42.102Z,16.98
2018-05-21T22:20:13.400Z,16.93
2018-05-21T22:22:44.682Z,16.88
2018-05-21T22:25:18.184Z,15.88
2018-05-21T22:27:49.562Z,16.46
2018-05-21T22:30:21.293Z,16.37
2018-05-21T22:32:53.186Z,16.75
2018-05-21T22:35:24.929Z,16.77
2018-05-21T22:37:56.197Z,16.69
2018-05-21T22:40:27.522Z,16.78
2018-05-21T22:42:59.035Z,16.67
2018-05-21T22:45:30.926Z,16.56
2018-05-21T22:48:03.386Z,16.52
2018-05-21T22:50:34.810Z,16.48
2018-05-21T22:53:06.666Z,16.70
2018-05-21T22:55:39.081Z,16.63
2018-05-21T22:58:11.561Z,16.66
2018-05-21T23:00:43.511Z,16.68
2018-05-21T23:03:14.725Z,16.70
2018-05-21T23:05:46.223Z,16.68
2018-05-21T23:08:17.660Z,16.70
2018-05-21T23:10:49.156Z,16.78
2018-05-21T23:13:20.609Z,16.67
2018-05-21T23:15:52.249Z,16.71
2018-05-21T23:18:23.660Z,16.67
2018-05-21T23:20:55.413Z,16.62
2018-05-21T23:23:26.729Z,16.56
2018-05-21T23:25:58.231Z,16.48
2018-05-21T23:28:29.547Z,16.43
2018-05-21T23:31:00.945Z,16.52
2018-05-21T23:33:32.385Z,16.47
2018-05-21T23:36:03.969Z,16.41
2018-05-21T23:38:35.419Z,16.36
2018-05-21T23:41:06.730Z,16.32
2018-05-21T23:43:38.211Z,16.22
2018-05-21T23:46:09.666Z,16.08
2018-05-21T23:48:41.077Z,16.18
2018-05-21T23:51:13.085Z,16.09
2018-05-21T23:53:44.427Z,16.14
2018-05-21T23:56:16.098Z,16.17
2018-05-21T23:58:47.513Z,16.10
